sensor_id;sensor_type;location;lat;lon;timestamp;P1;durP1;ratioP1;P2;durP2;ratioP2
55063;SDS011;40963;52.168;21.296;2022-10-16T00:01:11;26.42;;;15.60;;
55063;SDS011;40963;52.168;21.296;2022-10-16T00:03:38;28.20;;;16.90;;
55063;SDS011;40963;52.168;21.296;2022-10-16T00:06:04;27.58;;;15.93;;
55063;SDS011;40963;52.168;21.296;2022-10-16T00:08:31;28.90;;;16.15;;
55063;SDS011;40963;52.168;21.296;2022-10-16T00:11:01;32.33;;;16.13;;
55063;SDS011;40963;52.168;21.296;2022-10-16T00:13:28;35.22;;;15.82;;
55063;SDS011;40963;52.168;21.296;2022-10-16T00:15:55;29.75;;;15.55;;
55063;SDS011;40963;52.168;21.296;2022-10-16T00:18:22;30.42;;;16.17;;
55063;SDS011;40963;52.168;21.296;2022-10-16T00:20:48;30.63;;;15.43;;
55063;SDS011;40963;52.168;21.296;2022-10-16T00:23:13;25.00;;;16.10;;
55063;SDS011;40963;52.168;21.296;2022-10-16T00:25:39;32.95;;;16.38;;
55063;SDS011;40963;52.168;21.296;2022-10-16T00:28:05;24.35;;;15.05;;
55063;SDS011;40963;52.168;21.296;2022-10-16T00:30:30;27.75;;;15.77;;
55063;SDS011;40963;52.168;21.296;2022-10-16T00:32:56;30.13;;;17.20;;
55063;SDS011;40963;52.168;21.296;2022-10-16T00:35:22;30.60;;;14.82;;
55063;SDS011;40963;52.168;21.296;2022-10-16T00:37:47;28.05;;;15.38;;
55063;SDS011;40963;52.168;21.296;2022-10-16T00:40:13;30.90;;;16.30;;
55063;SDS011;40963;52.168;21.296;2022-10-16T00:42:39;29.52;;;15.30;;
55063;SDS011;40963;52.168;21.296;2022-10-16T00:45:08;31.17;;;15.70;;
55063;SDS011;40963;52.168;21.296;2022-10-16T00:47:35;25.20;;;15.18;;
55063;SDS011;40963;52.168;21.296;2022-10-16T00:52:41;30.33;;;16.13;;
55063;SDS011;40963;52.168;21.296;2022-10-16T00:55:10;29.35;;;15.48;;
55063;SDS011;40963;52.168;21.296;2022-10-16T00:57:37;29.88;;;16.20;;
55063;SDS011;40963;52.168;21.296;2022-10-16T01:00:04;33.28;;;15.98;;
55063;SDS011;40963;52.168;21.296;2022-10-16T01:02:33;25.10;;;15.35;;
55063;SDS011;40963;52.168;21.296;2022-10-16T01:04:59;24.92;;;15.40;;
55063;SDS011;40963;52.168;21.296;2022-10-16T01:13:13;29.77;;;15.68;;
55063;SDS011;40963;52.168;21.296;2022-10-16T01:15:56;24.75;;;15.07;;
55063;SDS011;40963;52.168;21.296;2022-10-16T01:21:10;30.50;;;15.63;;
55063;SDS011;40963;52.168;21.296;2022-10-16T01:32:01;30.63;;;15.98;;
55063;SDS011;40963;52.168;21.296;2022-10-16T01:34:54;28.33;;;15.52;;
55063;SDS011;40963;52.168;21.296;2022-10-16T01:37:33;27.35;;;16.38;;
55063;SDS011;40963;52.168;21.296;2022-10-16T01:40:05;31.38;;;15.93;;
55063;SDS011;40963;52.168;21.296;2022-10-16T01:42:35;28.52;;;15.95;;
55063;SDS011;40963;52.168;21.296;2022-10-16T01:45:04;31.90;;;17.13;;
55063;SDS011;40963;52.168;21.296;2022-10-16T01:47:32;26.75;;;16.65;;
55063;SDS011;40963;52.168;21.296;2022-10-16T01:50:00;30.75;;;16.50;;
55063;SDS011;40963;52.168;21.296;2022-10-16T01:52:29;32.50;;;15.95;;
55063;SDS011;40963;52.168;21.296;2022-10-16T01:54:57;32.90;;;17.25;;
55063;SDS011;40963;52.168;21.296;2022-10-16T01:57:25;27.27;;;16.15;;
55063;SDS011;40963;52.168;21.296;2022-10-16T01:59:52;31.02;;;16.65;;
55063;SDS011;40963;52.168;21.296;2022-10-16T02:02:21;30.25;;;16.90;;
55063;SDS011;40963;52.168;21.296;2022-10-16T02:04:53;31.88;;;16.70;;
55063;SDS011;40963;52.168;21.296;2022-10-16T02:07:23;34.22;;;17.40;;
55063;SDS011;40963;52.168;21.296;2022-10-16T02:09:49;27.33;;;16.13;;
55063;SDS011;40963;52.168;21.296;2022-10-16T02:12:20;25.50;;;15.57;;
55063;SDS011;40963;52.168;21.296;2022-10-16T02:14:48;37.50;;;16.38;;
55063;SDS011;40963;52.168;21.296;2022-10-16T02:17:15;32.40;;;16.88;;
55063;SDS011;40963;52.168;21.296;2022-10-16T02:19:42;25.67;;;16.17;;
55063;SDS011;40963;52.168;21.296;2022-10-16T02:22:10;28.63;;;17.13;;
55063;SDS011;40963;52.168;21.296;2022-10-16T02:24:49;31.33;;;16.73;;
55063;SDS011;40963;52.168;21.296;2022-10-16T02:27:35;30.70;;;16.05;;
55063;SDS011;40963;52.168;21.296;2022-10-16T02:30:15;40.40;;;16.20;;
55063;SDS011;40963;52.168;21.296;2022-10-16T02:32:54;31.00;;;15.88;;
55063;SDS011;40963;52.168;21.296;2022-10-16T02:35:21;26.23;;;15.73;;
55063;SDS011;40963;52.168;21.296;2022-10-16T02:37:49;31.45;;;16.52;;
55063;SDS011;40963;52.168;21.296;2022-10-16T02:40:15;30.35;;;16.05;;
55063;SDS011;40963;52.168;21.296;2022-10-16T02:42:43;34.90;;;16.65;;
55063;SDS011;40963;52.168;21.296;2022-10-16T02:45:09;30.88;;;16.48;;
55063;SDS011;40963;52.168;21.296;2022-10-16T02:47:36;30.10;;;16.38;;
55063;SDS011;40963;52.168;21.296;2022-10-16T02:50:04;30.98;;;17.08;;
55063;SDS011;40963;52.168;21.296;2022-10-16T02:52:30;27.42;;;16.10;;
55063;SDS011;40963;52.168;21.296;2022-10-16T02:54:56;29.60;;;14.95;;
55063;SDS011;40963;52.168;21.296;2022-10-16T02:57:22;26.63;;;15.60;;
55063;SDS011;40963;52.168;21.296;2022-10-16T02:59:47;26.90;;;15.02;;
55063;SDS011;40963;52.168;21.296;2022-10-16T03:02:13;30.92;;;15.77;;
55063;SDS011;40963;52.168;21.296;2022-10-16T03:04:38;26.75;;;16.33;;
55063;SDS011;40963;52.168;21.296;2022-10-16T03:07:04;27.33;;;14.77;;
55063;SDS011;40963;52.168;21.296;2022-10-16T03:09:30;28.38;;;15.25;;
55063;SDS011;40963;52.168;21.296;2022-10-16T03:11:55;31.50;;;15.88;;
55063;SDS011;40963;52.168;21.296;2022-10-16T03:14:21;31.67;;;14.85;;
55063;SDS011;40963;52.168;21.296;2022-10-16T03:16:47;32.17;;;16.20;;
55063;SDS011;40963;52.168;21.296;2022-10-16T03:19:12;26.73;;;15.48;;
55063;SDS011;40963;52.168;21.296;2022-10-16T03:21:38;29.05;;;15.75;;
55063;SDS011;40963;52.168;21.296;2022-10-16T03:24:04;32.92;;;14.95;;
55063;SDS011;40963;52.168;21.296;2022-10-16T03:26:30;26.38;;;15.13;;
55063;SDS011;40963;52.168;21.296;2022-10-16T03:28:55;27.48;;;14.77;;
55063;SDS011;40963;52.168;21.296;2022-10-16T03:31:21;25.45;;;14.52;;
55063;SDS011;40963;52.168;21.296;2022-10-16T03:33:47;30.23;;;14.68;;
55063;SDS011;40963;52.168;21.296;2022-10-16T03:36:12;27.73;;;14.88;;
55063;SDS011;40963;52.168;21.296;2022-10-16T03:38:38;28.63;;;14.88;;
55063;SDS011;40963;52.168;21.296;2022-10-16T03:41:04;27.17;;;14.57;;
55063;SDS011;40963;52.168;21.296;2022-10-16T03:43:29;27.92;;;16.13;;
55063;SDS011;40963;52.168;21.296;2022-10-16T03:45:55;26.23;;;14.85;;
55063;SDS011;40963;52.168;21.296;2022-10-16T03:48:21;25.25;;;14.77;;
55063;SDS011;40963;52.168;21.296;2022-10-16T03:50:46;33.38;;;15.15;;
55063;SDS011;40963;52.168;21.296;2022-10-16T03:53:13;24.20;;;14.02;;
55063;SDS011;40963;52.168;21.296;2022-10-16T03:55:40;25.50;;;13.65;;
55063;SDS011;40963;52.168;21.296;2022-10-16T03:58:07;23.83;;;14.23;;
55063;SDS011;40963;52.168;21.296;2022-10-16T04:00:33;26.95;;;13.88;;
55063;SDS011;40963;52.168;21.296;2022-10-16T04:02:59;23.17;;;14.00;;
55063;SDS011;40963;52.168;21.296;2022-10-16T04:05:25;22.80;;;14.02;;
55063;SDS011;40963;52.168;21.296;2022-10-16T04:07:51;24.05;;;13.60;;
55063;SDS011;40963;52.168;21.296;2022-10-16T04:10:16;24.33;;;13.75;;
55063;SDS011;40963;52.168;21.296;2022-10-16T04:12:42;25.17;;;13.60;;
55063;SDS011;40963;52.168;21.296;2022-10-16T04:15:08;22.35;;;14.55;;
55063;SDS011;40963;52.168;21.296;2022-10-16T04:17:33;26.88;;;13.77;;
55063;SDS011;40963;52.168;21.296;2022-10-16T04:19:59;23.38;;;13.23;;
55063;SDS011;40963;52.168;21.296;2022-10-16T04:22:24;24.35;;;14.00;;
55063;SDS011;40963;52.168;21.296;2022-10-16T04:24:50;26.48;;;14.23;;
55063;SDS011;40963;52.168;21.296;2022-10-16T04:27:16;22.40;;;13.63;;
55063;SDS011;40963;52.168;21.296;2022-10-16T04:29:41;25.67;;;13.63;;
55063;SDS011;40963;52.168;21.296;2022-10-16T04:32:08;26.00;;;13.73;;
55063;SDS011;40963;52.168;21.296;2022-10-16T04:34:34;21.63;;;13.18;;
55063;SDS011;40963;52.168;21.296;2022-10-16T04:37:00;24.55;;;13.63;;
55063;SDS011;40963;52.168;21.296;2022-10-16T04:39:25;21.90;;;14.07;;
55063;SDS011;40963;52.168;21.296;2022-10-16T04:41:51;23.50;;;14.52;;
55063;SDS011;40963;52.168;21.296;2022-10-16T04:44:16;23.55;;;13.60;;
55063;SDS011;40963;52.168;21.296;2022-10-16T04:46:42;24.65;;;13.98;;
55063;SDS011;40963;52.168;21.296;2022-10-16T04:49:09;21.58;;;13.52;;
55063;SDS011;40963;52.168;21.296;2022-10-16T04:51:34;28.95;;;14.80;;
55063;SDS011;40963;52.168;21.296;2022-10-16T04:54:00;20.95;;;13.85;;
55063;SDS011;40963;52.168;21.296;2022-10-16T04:56:26;25.00;;;14.25;;
55063;SDS011;40963;52.168;21.296;2022-10-16T04:58:52;23.48;;;14.35;;
55063;SDS011;40963;52.168;21.296;2022-10-16T05:01:17;22.02;;;14.60;;
55063;SDS011;40963;52.168;21.296;2022-10-16T05:03:43;24.40;;;13.50;;
55063;SDS011;40963;52.168;21.296;2022-10-16T05:06:09;29.08;;;13.98;;
55063;SDS011;40963;52.168;21.296;2022-10-16T05:08:34;22.35;;;14.27;;
55063;SDS011;40963;52.168;21.296;2022-10-16T05:11:00;27.67;;;14.13;;
55063;SDS011;40963;52.168;21.296;2022-10-16T05:13:26;28.17;;;13.70;;
55063;SDS011;40963;52.168;21.296;2022-10-16T05:15:52;23.85;;;13.70;;
55063;SDS011;40963;52.168;21.296;2022-10-16T05:18:18;34.28;;;14.32;;
55063;SDS011;40963;52.168;21.296;2022-10-16T05:20:43;24.00;;;14.63;;
55063;SDS011;40963;52.168;21.296;2022-10-16T05:23:09;28.13;;;14.38;;
55063;SDS011;40963;52.168;21.296;2022-10-16T05:25:36;29.52;;;14.10;;
55063;SDS011;40963;52.168;21.296;2022-10-16T05:28:02;26.92;;;14.43;;
55063;SDS011;40963;52.168;21.296;2022-10-16T05:30:27;24.00;;;14.48;;
55063;SDS011;40963;52.168;21.296;2022-10-16T05:32:53;26.42;;;15.15;;
55063;SDS011;40963;52.168;21.296;2022-10-16T05:35:19;27.83;;;14.05;;
55063;SDS011;40963;52.168;21.296;2022-10-16T05:37:45;23.70;;;14.45;;
55063;SDS011;40963;52.168;21.296;2022-10-16T05:40:11;24.02;;;14.15;;
55063;SDS011;40963;52.168;21.296;2022-10-16T05:42:38;22.67;;;14.23;;
55063;SDS011;40963;52.168;21.296;2022-10-16T05:45:04;23.70;;;14.10;;
55063;SDS011;40963;52.168;21.296;2022-10-16T05:47:31;25.08;;;14.05;;
55063;SDS011;40963;52.168;21.296;2022-10-16T05:49:56;28.13;;;15.18;;
55063;SDS011;40963;52.168;21.296;2022-10-16T05:52:22;24.40;;;13.23;;
55063;SDS011;40963;52.168;21.296;2022-10-16T05:54:47;25.42;;;13.57;;
55063;SDS011;40963;52.168;21.296;2022-10-16T05:57:13;23.75;;;13.20;;
55063;SDS011;40963;52.168;21.296;2022-10-16T05:59:39;25.98;;;13.43;;
55063;SDS011;40963;52.168;21.296;2022-10-16T06:02:05;29.02;;;13.20;;
55063;SDS011;40963;52.168;21.296;2022-10-16T06:04:30;22.05;;;13.52;;
55063;SDS011;40963;52.168;21.296;2022-10-16T06:06:57;21.92;;;13.23;;
55063;SDS011;40963;52.168;21.296;2022-10-16T06:09:25;23.38;;;13.85;;
55063;SDS011;40963;52.168;21.296;2022-10-16T06:11:51;27.40;;;14.13;;
55063;SDS011;40963;52.168;21.296;2022-10-16T06:14:16;28.17;;;13.40;;
55063;SDS011;40963;52.168;21.296;2022-10-16T06:16:42;23.90;;;12.57;;
55063;SDS011;40963;52.168;21.296;2022-10-16T06:19:07;25.48;;;14.35;;
55063;SDS011;40963;52.168;21.296;2022-10-16T06:21:34;25.60;;;14.00;;
55063;SDS011;40963;52.168;21.296;2022-10-16T06:24:00;24.33;;;14.20;;
55063;SDS011;40963;52.168;21.296;2022-10-16T06:26:26;25.15;;;13.02;;
55063;SDS011;40963;52.168;21.296;2022-10-16T06:28:54;20.23;;;12.45;;
55063;SDS011;40963;52.168;21.296;2022-10-16T06:31:20;20.67;;;13.57;;
55063;SDS011;40963;52.168;21.296;2022-10-16T06:33:49;23.80;;;13.15;;
55063;SDS011;40963;52.168;21.296;2022-10-16T06:36:16;22.55;;;13.02;;
55063;SDS011;40963;52.168;21.296;2022-10-16T06:38:42;19.95;;;13.18;;
55063;SDS011;40963;52.168;21.296;2022-10-16T06:41:12;21.45;;;13.43;;
55063;SDS011;40963;52.168;21.296;2022-10-16T06:43:39;23.63;;;13.27;;
55063;SDS011;40963;52.168;21.296;2022-10-16T06:46:06;20.38;;;12.50;;
55063;SDS011;40963;52.168;21.296;2022-10-16T06:48:33;22.95;;;12.82;;
55063;SDS011;40963;52.168;21.296;2022-10-16T06:51:06;19.85;;;13.15;;
55063;SDS011;40963;52.168;21.296;2022-10-16T06:53:38;21.95;;;12.57;;
55063;SDS011;40963;52.168;21.296;2022-10-16T06:56:19;19.55;;;12.73;;
55063;SDS011;40963;52.168;21.296;2022-10-16T06:58:52;29.98;;;12.50;;
55063;SDS011;40963;52.168;21.296;2022-10-16T07:01:20;20.58;;;12.57;;
55063;SDS011;40963;52.168;21.296;2022-10-16T07:03:47;29.77;;;13.18;;
55063;SDS011;40963;52.168;21.296;2022-10-16T07:06:15;21.60;;;12.98;;
55063;SDS011;40963;52.168;21.296;2022-10-16T07:08:43;23.60;;;12.50;;
55063;SDS011;40963;52.168;21.296;2022-10-16T07:11:11;23.48;;;12.45;;
55063;SDS011;40963;52.168;21.296;2022-10-16T07:13:39;20.42;;;13.25;;
55063;SDS011;40963;52.168;21.296;2022-10-16T07:16:08;29.00;;;13.73;;
55063;SDS011;40963;52.168;21.296;2022-10-16T07:18:34;19.42;;;11.80;;
55063;SDS011;40963;52.168;21.296;2022-10-16T07:21:04;21.30;;;12.40;;
55063;SDS011;40963;52.168;21.296;2022-10-16T07:23:41;20.50;;;13.10;;
55063;SDS011;40963;52.168;21.296;2022-10-16T07:26:09;21.70;;;12.77;;
55063;SDS011;40963;52.168;21.296;2022-10-16T07:28:35;22.73;;;12.85;;
55063;SDS011;40963;52.168;21.296;2022-10-16T07:31:02;23.33;;;13.30;;
55063;SDS011;40963;52.168;21.296;2022-10-16T07:33:29;23.85;;;12.50;;
55063;SDS011;40963;52.168;21.296;2022-10-16T07:35:55;22.58;;;13.30;;
55063;SDS011;40963;52.168;21.296;2022-10-16T07:38:21;19.40;;;13.02;;
55063;SDS011;40963;52.168;21.296;2022-10-16T07:40:47;21.23;;;12.57;;
55063;SDS011;40963;52.168;21.296;2022-10-16T07:43:20;25.15;;;12.85;;
55063;SDS011;40963;52.168;21.296;2022-10-16T07:45:46;21.75;;;11.73;;
55063;SDS011;40963;52.168;21.296;2022-10-16T07:48:13;23.05;;;12.57;;
55063;SDS011;40963;52.168;21.296;2022-10-16T07:50:39;27.38;;;12.70;;
55063;SDS011;40963;52.168;21.296;2022-10-16T07:53:06;20.08;;;11.93;;
55063;SDS011;40963;52.168;21.296;2022-10-16T07:55:31;20.08;;;12.10;;
55063;SDS011;40963;52.168;21.296;2022-10-16T07:57:57;24.45;;;12.73;;
55063;SDS011;40963;52.168;21.296;2022-10-16T08:00:23;22.77;;;12.05;;
55063;SDS011;40963;52.168;21.296;2022-10-16T08:02:48;22.92;;;12.30;;
55063;SDS011;40963;52.168;21.296;2022-10-16T08:05:14;19.77;;;12.23;;
55063;SDS011;40963;52.168;21.296;2022-10-16T08:07:40;20.75;;;11.90;;
55063;SDS011;40963;52.168;21.296;2022-10-16T08:10:05;23.08;;;11.73;;
55063;SDS011;40963;52.168;21.296;2022-10-16T08:12:31;19.10;;;11.90;;
55063;SDS011;40963;52.168;21.296;2022-10-16T08:14:57;23.27;;;12.80;;
55063;SDS011;40963;52.168;21.296;2022-10-16T08:17:22;19.35;;;11.55;;
55063;SDS011;40963;52.168;21.296;2022-10-16T08:19:48;26.83;;;12.18;;
55063;SDS011;40963;52.168;21.296;2022-10-16T08:22:14;26.90;;;11.75;;
55063;SDS011;40963;52.168;21.296;2022-10-16T08:24:40;20.55;;;11.75;;
55063;SDS011;40963;52.168;21.296;2022-10-16T08:27:06;28.70;;;11.45;;
55063;SDS011;40963;52.168;21.296;2022-10-16T08:29:31;20.42;;;11.27;;
55063;SDS011;40963;52.168;21.296;2022-10-16T08:31:57;20.50;;;11.23;;
55063;SDS011;40963;52.168;21.296;2022-10-16T08:34:23;17.45;;;11.20;;
55063;SDS011;40963;52.168;21.296;2022-10-16T08:36:49;16.10;;;10.02;;
55063;SDS011;40963;52.168;21.296;2022-10-16T08:39:15;24.48;;;10.50;;
55063;SDS011;40963;52.168;21.296;2022-10-16T08:44:41;18.08;;;10.07;;
55063;SDS011;40963;52.168;21.296;2022-10-16T08:50:25;18.77;;;10.75;;
55063;SDS011;40963;52.168;21.296;2022-10-16T08:52:53;19.42;;;10.50;;
55063;SDS011;40963;52.168;21.296;2022-10-16T08:55:23;12.52;;;9.68;;
55063;SDS011;40963;52.168;21.296;2022-10-16T08:57:50;14.60;;;10.00;;
55063;SDS011;40963;52.168;21.296;2022-10-16T09:00:16;17.08;;;10.15;;
55063;SDS011;40963;52.168;21.296;2022-10-16T09:02:52;16.38;;;10.10;;
55063;SDS011;40963;52.168;21.296;2022-10-16T09:08:26;16.73;;;10.23;;
55063;SDS011;40963;52.168;21.296;2022-10-16T09:11:13;15.93;;;10.13;;
55063;SDS011;40963;52.168;21.296;2022-10-16T09:16:48;13.98;;;9.77;;
55063;SDS011;40963;52.168;21.296;2022-10-16T09:19:25;18.00;;;10.38;;
55063;SDS011;40963;52.168;21.296;2022-10-16T09:22:10;16.77;;;10.10;;
55063;SDS011;40963;52.168;21.296;2022-10-16T09:24:39;16.00;;;11.05;;
55063;SDS011;40963;52.168;21.296;2022-10-16T09:27:08;16.25;;;9.75;;
55063;SDS011;40963;52.168;21.296;2022-10-16T09:29:36;14.75;;;8.88;;
55063;SDS011;40963;52.168;21.296;2022-10-16T09:32:15;16.60;;;9.85;;
55063;SDS011;40963;52.168;21.296;2022-10-16T09:34:47;17.60;;;9.80;;
55063;SDS011;40963;52.168;21.296;2022-10-16T09:37:16;12.02;;;9.25;;
55063;SDS011;40963;52.168;21.296;2022-10-16T09:39:47;16.60;;;9.57;;
55063;SDS011;40963;52.168;21.296;2022-10-16T09:42:22;19.30;;;9.45;;
55063;SDS011;40963;52.168;21.296;2022-10-16T09:44:52;17.25;;;9.63;;
55063;SDS011;40963;52.168;21.296;2022-10-16T09:47:25;12.43;;;8.85;;
55063;SDS011;40963;52.168;21.296;2022-10-16T09:49:53;15.73;;;9.35;;
55063;SDS011;40963;52.168;21.296;2022-10-16T09:52:22;17.15;;;9.45;;
55063;SDS011;40963;52.168;21.296;2022-10-16T09:54:49;16.95;;;8.85;;
55063;SDS011;40963;52.168;21.296;2022-10-16T09:57:21;14.27;;;9.15;;
55063;SDS011;40963;52.168;21.296;2022-10-16T09:59:54;14.10;;;9.55;;
55063;SDS011;40963;52.168;21.296;2022-10-16T10:05:05;15.52;;;8.82;;
55063;SDS011;40963;52.168;21.296;2022-10-16T10:07:43;15.88;;;9.25;;
55063;SDS011;40963;52.168;21.296;2022-10-16T10:10:18;15.43;;;8.27;;
55063;SDS011;40963;52.168;21.296;2022-10-16T10:12:46;13.00;;;8.95;;
55063;SDS011;40963;52.168;21.296;2022-10-16T10:15:12;13.32;;;9.20;;
55063;SDS011;40963;52.168;21.296;2022-10-16T10:17:45;12.50;;;8.95;;
55063;SDS011;40963;52.168;21.296;2022-10-16T10:22:48;18.27;;;9.13;;
55063;SDS011;40963;52.168;21.296;2022-10-16T10:25:18;14.48;;;8.70;;
55063;SDS011;40963;52.168;21.296;2022-10-16T10:33:53;14.30;;;8.88;;
55063;SDS011;40963;52.168;21.296;2022-10-16T10:52:34;11.88;;;9.05;;
55063;SDS011;40963;52.168;21.296;2022-10-16T10:55:13;16.13;;;8.65;;
55063;SDS011;40963;52.168;21.296;2022-10-16T10:57:50;16.60;;;9.68;;
55063;SDS011;40963;52.168;21.296;2022-10-16T11:00:42;12.68;;;9.20;;
55063;SDS011;40963;52.168;21.296;2022-10-16T11:08:52;21.88;;;9.05;;
55063;SDS011;40963;52.168;21.296;2022-10-16T11:12:04;14.27;;;9.20;;
55063;SDS011;40963;52.168;21.296;2022-10-16T11:14:16;14.80;;;8.95;;
55063;SDS011;40963;52.168;21.296;2022-10-16T11:17:21;18.67;;;9.07;;
55063;SDS011;40963;52.168;21.296;2022-10-16T11:22:30;14.05;;;9.48;;
55063;SDS011;40963;52.168;21.296;2022-10-16T11:25:13;12.63;;;8.63;;
55063;SDS011;40963;52.168;21.296;2022-10-16T11:30:24;15.35;;;8.70;;
55063;SDS011;40963;52.168;21.296;2022-10-16T11:32:54;19.27;;;8.82;;
55063;SDS011;40963;52.168;21.296;2022-10-16T11:36:14;15.98;;;7.93;;
55063;SDS011;40963;52.168;21.296;2022-10-16T11:41:10;11.50;;;7.63;;
55063;SDS011;40963;52.168;21.296;2022-10-16T11:46:47;13.00;;;7.57;;
55063;SDS011;40963;52.168;21.296;2022-10-16T11:49:18;11.63;;;7.65;;
55063;SDS011;40963;52.168;21.296;2022-10-16T11:51:57;9.55;;;7.60;;
55063;SDS011;40963;52.168;21.296;2022-10-16T11:57:26;14.05;;;7.60;;
55063;SDS011;40963;52.168;21.296;2022-10-16T12:00:02;41.50;;;14.60;;
55063;SDS011;40963;52.168;21.296;2022-10-16T12:02:36;13.02;;;8.57;;
55063;SDS011;40963;52.168;21.296;2022-10-16T12:05:34;12.40;;;8.38;;
55063;SDS011;40963;52.168;21.296;2022-10-16T12:08:17;11.80;;;7.90;;
55063;SDS011;40963;52.168;21.296;2022-10-16T12:10:44;15.43;;;8.50;;
55063;SDS011;40963;52.168;21.296;2022-10-16T12:19:02;18.10;;;8.40;;
55063;SDS011;40963;52.168;21.296;2022-10-16T12:21:35;13.38;;;7.40;;
55063;SDS011;40963;52.168;21.296;2022-10-16T12:24:02;10.57;;;6.97;;
55063;SDS011;40963;52.168;21.296;2022-10-16T12:26:37;10.88;;;7.10;;
55063;SDS011;40963;52.168;21.296;2022-10-16T12:29:13;14.43;;;7.10;;
55063;SDS011;40963;52.168;21.296;2022-10-16T12:31:58;26.25;;;13.00;;
55063;SDS011;40963;52.168;21.296;2022-10-16T12:34:41;13.00;;;7.97;;
55063;SDS011;40963;52.168;21.296;2022-10-16T12:37:13;13.10;;;7.72;;
55063;SDS011;40963;52.168;21.296;2022-10-16T12:39:50;9.30;;;7.10;;
55063;SDS011;40963;52.168;21.296;2022-10-16T12:42:31;10.32;;;6.68;;
55063;SDS011;40963;52.168;21.296;2022-10-16T12:44:59;14.18;;;8.77;;
55063;SDS011;40963;52.168;21.296;2022-10-16T12:49:56;9.50;;;6.50;;
55063;SDS011;40963;52.168;21.296;2022-10-16T12:52:34;12.70;;;6.78;;
55063;SDS011;40963;52.168;21.296;2022-10-16T12:55:04;8.63;;;6.85;;
55063;SDS011;40963;52.168;21.296;2022-10-16T12:58:26;8.88;;;7.35;;
55063;SDS011;40963;52.168;21.296;2022-10-16T13:13:36;9.38;;;7.10;;
55063;SDS011;40963;52.168;21.296;2022-10-16T13:19:22;7.70;;;6.25;;
55063;SDS011;40963;52.168;21.296;2022-10-16T13:24:40;12.35;;;7.50;;
55063;SDS011;40963;52.168;21.296;2022-10-16T13:30:02;10.82;;;6.68;;
55063;SDS011;40963;52.168;21.296;2022-10-16T13:32:44;8.63;;;7.03;;
55063;SDS011;40963;52.168;21.296;2022-10-16T13:35:32;11.35;;;7.18;;
55063;SDS011;40963;52.168;21.296;2022-10-16T13:38:03;11.48;;;7.15;;
55063;SDS011;40963;52.168;21.296;2022-10-16T13:40:48;11.27;;;7.72;;
55063;SDS011;40963;52.168;21.296;2022-10-16T13:43:16;12.52;;;8.40;;
55063;SDS011;40963;52.168;21.296;2022-10-16T13:46:01;14.10;;;9.18;;
55063;SDS011;40963;52.168;21.296;2022-10-16T13:48:39;14.03;;;7.63;;
55063;SDS011;40963;52.168;21.296;2022-10-16T13:51:12;13.95;;;7.70;;
55063;SDS011;40963;52.168;21.296;2022-10-16T13:53:42;16.40;;;7.95;;
55063;SDS011;40963;52.168;21.296;2022-10-16T13:56:10;12.93;;;8.27;;
55063;SDS011;40963;52.168;21.296;2022-10-16T13:58:41;11.68;;;7.72;;
55063;SDS011;40963;52.168;21.296;2022-10-16T14:01:20;10.68;;;7.18;;
55063;SDS011;40963;52.168;21.296;2022-10-16T14:03:50;14.02;;;7.45;;
55063;SDS011;40963;52.168;21.296;2022-10-16T14:06:17;11.68;;;8.50;;
55063;SDS011;40963;52.168;21.296;2022-10-16T14:08:48;12.48;;;8.02;;
55063;SDS011;40963;52.168;21.296;2022-10-16T14:11:43;13.45;;;8.77;;
55063;SDS011;40963;52.168;21.296;2022-10-16T14:14:13;12.75;;;9.32;;
55063;SDS011;40963;52.168;21.296;2022-10-16T14:16:40;17.38;;;9.60;;
55063;SDS011;40963;52.168;21.296;2022-10-16T14:19:13;14.10;;;9.07;;
55063;SDS011;40963;52.168;21.296;2022-10-16T14:21:50;15.82;;;9.40;;
55063;SDS011;40963;52.168;21.296;2022-10-16T14:24:25;14.52;;;9.82;;
55063;SDS011;40963;52.168;21.296;2022-10-16T14:26:58;17.75;;;10.05;;
55063;SDS011;40963;52.168;21.296;2022-10-16T14:29:26;14.00;;;8.13;;
55063;SDS011;40963;52.168;21.296;2022-10-16T14:32:00;11.43;;;8.82;;
55063;SDS011;40963;52.168;21.296;2022-10-16T14:34:32;17.50;;;8.47;;
55063;SDS011;40963;52.168;21.296;2022-10-16T14:37:07;13.55;;;9.30;;
55063;SDS011;40963;52.168;21.296;2022-10-16T14:39:54;13.20;;;9.50;;
55063;SDS011;40963;52.168;21.296;2022-10-16T14:42:21;13.07;;;8.40;;
55063;SDS011;40963;52.168;21.296;2022-10-16T14:44:50;14.07;;;8.88;;
55063;SDS011;40963;52.168;21.296;2022-10-16T14:47:21;13.57;;;8.43;;
55063;SDS011;40963;52.168;21.296;2022-10-16T14:49:51;17.63;;;9.15;;
55063;SDS011;40963;52.168;21.296;2022-10-16T14:52:20;16.15;;;8.90;;
55063;SDS011;40963;52.168;21.296;2022-10-16T14:54:49;15.27;;;10.00;;
55063;SDS011;40963;52.168;21.296;2022-10-16T14:57:18;19.27;;;9.98;;
55063;SDS011;40963;52.168;21.296;2022-10-16T14:59:49;15.60;;;9.73;;
55063;SDS011;40963;52.168;21.296;2022-10-16T15:02:24;14.63;;;9.45;;
55063;SDS011;40963;52.168;21.296;2022-10-16T15:04:55;18.23;;;9.90;;
55063;SDS011;40963;52.168;21.296;2022-10-16T15:07:21;16.13;;;9.40;;
55063;SDS011;40963;52.168;21.296;2022-10-16T15:09:47;16.50;;;9.40;;
55063;SDS011;40963;52.168;21.296;2022-10-16T15:12:13;19.25;;;10.75;;
55063;SDS011;40963;52.168;21.296;2022-10-16T15:14:38;20.88;;;10.02;;
55063;SDS011;40963;52.168;21.296;2022-10-16T15:17:04;18.77;;;9.82;;
55063;SDS011;40963;52.168;21.296;2022-10-16T15:19:30;17.38;;;10.43;;
55063;SDS011;40963;52.168;21.296;2022-10-16T15:21:55;20.23;;;10.43;;
55063;SDS011;40963;52.168;21.296;2022-10-16T15:24:21;16.75;;;9.98;;
55063;SDS011;40963;52.168;21.296;2022-10-16T15:26:47;20.77;;;10.50;;
55063;SDS011;40963;52.168;21.296;2022-10-16T15:29:13;21.42;;;11.25;;
55063;SDS011;40963;52.168;21.296;2022-10-16T15:31:39;22.52;;;10.32;;
55063;SDS011;40963;52.168;21.296;2022-10-16T15:34:08;23.70;;;12.40;;
55063;SDS011;40963;52.168;21.296;2022-10-16T15:36:35;35.28;;;21.98;;
55063;SDS011;40963;52.168;21.296;2022-10-16T15:39:02;31.10;;;18.83;;
55063;SDS011;40963;52.168;21.296;2022-10-16T15:41:29;32.80;;;19.67;;
55063;SDS011;40963;52.168;21.296;2022-10-16T15:43:55;21.80;;;15.02;;
55063;SDS011;40963;52.168;21.296;2022-10-16T15:46:21;21.67;;;12.18;;
55063;SDS011;40963;52.168;21.296;2022-10-16T15:48:48;24.20;;;14.05;;
55063;SDS011;40963;52.168;21.296;2022-10-16T15:51:15;36.97;;;24.60;;
55063;SDS011;40963;52.168;21.296;2022-10-16T15:53:41;45.65;;;25.73;;
55063;SDS011;40963;52.168;21.296;2022-10-16T15:56:08;24.98;;;15.57;;
55063;SDS011;40963;52.168;21.296;2022-10-16T15:58:34;23.15;;;14.75;;
55063;SDS011;40963;52.168;21.296;2022-10-16T16:01:01;27.17;;;15.70;;
55063;SDS011;40963;52.168;21.296;2022-10-16T16:03:28;25.10;;;16.50;;
55063;SDS011;40963;52.168;21.296;2022-10-16T16:05:55;27.17;;;15.23;;
55063;SDS011;40963;52.168;21.296;2022-10-16T16:08:21;22.00;;;13.68;;
55063;SDS011;40963;52.168;21.296;2022-10-16T16:11:03;25.60;;;12.32;;
55063;SDS011;40963;52.168;21.296;2022-10-16T16:13:31;19.50;;;13.00;;
55063;SDS011;40963;52.168;21.296;2022-10-16T16:15:57;20.65;;;12.93;;